sensor_id;sensor_type;location;lat;lon;timestamp;P1;durP1;ratioP1;P2;durP2;ratioP2
8572;SDS011;4324;42.012;24.872;2024-02-23T00:01:53;10.17;;;8.90;;
8572;SDS011;4324;42.012;24.872;2024-02-23T00:04:20;10.40;;;8.97;;
8572;SDS011;4324;42.012;24.872;2024-02-23T00:06:47;10.37;;;8.60;;
8572;SDS011;4324;42.012;24.872;2024-02-23T00:09:15;15.40;;;13.20;;
8572;SDS011;4324;42.012;24.872;2024-02-23T00:11:42;18.83;;;16.20;;
8572;SDS011;4324;42.012;24.872;2024-02-23T00:14:10;21.30;;;16.27;;
8572;SDS011;4324;42.012;24.872;2024-02-23T00:16:37;19.87;;;16.20;;
8572;SDS011;4324;42.012;24.872;2024-02-23T00:19:05;19.07;;;16.70;;
8572;SDS011;4324;42.012;24.872;2024-02-23T00:21:33;19.23;;;15.93;;
8572;SDS011;4324;42.012;24.872;2024-02-23T00:24:00;19.87;;;16.20;;
8572;SDS011;4324;42.012;24.872;2024-02-23T00:26:28;18.50;;;15.00;;
8572;SDS011;4324;42.012;24.872;2024-02-23T00:28:55;17.13;;;14.77;;
8572;SDS011;4324;42.012;24.872;2024-02-23T00:31:22;17.20;;;14.37;;
8572;SDS011;4324;42.012;24.872;2024-02-23T00:33:49;20.83;;;16.03;;
8572;SDS011;4324;42.012;24.872;2024-02-23T00:36:16;21.57;;;17.07;;
8572;SDS011;4324;42.012;24.872;2024-02-23T00:38:43;17.80;;;15.47;;
8572;SDS011;4324;42.012;24.872;2024-02-23T00:41:10;19.70;;;16.40;;
8572;SDS011;4324;42.012;24.872;2024-02-23T00:43:41;18.77;;;14.93;;
8572;SDS011;4324;42.012;24.872;2024-02-23T00:46:08;20.30;;;14.67;;
8572;SDS011;4324;42.012;24.872;2024-02-23T00:48:35;18.60;;;16.07;;
8572;SDS011;4324;42.012;24.872;2024-02-23T00:51:02;21.03;;;16.50;;
8572;SDS011;4324;42.012;24.872;2024-02-23T00:53:30;18.87;;;16.13;;
8572;SDS011;4324;42.012;24.872;2024-02-23T00:55:58;24.73;;;18.07;;
8572;SDS011;4324;42.012;24.872;2024-02-23T00:58:25;19.47;;;16.13;;
8572;SDS011;4324;42.012;24.872;2024-02-23T01:00:53;25.57;;;18.07;;
8572;SDS011;4324;42.012;24.872;2024-02-23T01:03:20;24.00;;;17.73;;
8572;SDS011;4324;42.012;24.872;2024-02-23T01:05:47;21.50;;;16.67;;
8572;SDS011;4324;42.012;24.872;2024-02-23T01:08:14;20.67;;;15.23;;
8572;SDS011;4324;42.012;24.872;2024-02-23T01:10:40;19.07;;;13.93;;
8572;SDS011;4324;42.012;24.872;2024-02-23T01:13:07;15.70;;;13.73;;
8572;SDS011;4324;42.012;24.872;2024-02-23T01:15:34;13.93;;;12.47;;
8572;SDS011;4324;42.012;24.872;2024-02-23T01:18:02;13.53;;;11.20;;
8572;SDS011;4324;42.012;24.872;2024-02-23T01:20:31;17.93;;;14.10;;
8572;SDS011;4324;42.012;24.872;2024-02-23T01:22:57;16.53;;;13.83;;
8572;SDS011;4324;42.012;24.872;2024-02-23T01:25:24;18.10;;;14.87;;
8572;SDS011;4324;42.012;24.872;2024-02-23T01:27:51;15.93;;;13.37;;
8572;SDS011;4324;42.012;24.872;2024-02-23T01:30:18;14.57;;;13.00;;
8572;SDS011;4324;42.012;24.872;2024-02-23T01:32:45;16.53;;;13.53;;
8572;SDS011;4324;42.012;24.872;2024-02-23T01:35:13;15.17;;;13.07;;
8572;SDS011;4324;42.012;24.872;2024-02-23T01:37:41;14.87;;;12.63;;
8572;SDS011;4324;42.012;24.872;2024-02-23T01:40:08;16.07;;;13.37;;
8572;SDS011;4324;42.012;24.872;2024-02-23T01:42:35;15.80;;;13.20;;
8572;SDS011;4324;42.012;24.872;2024-02-23T01:45:02;14.80;;;12.53;;
8572;SDS011;4324;42.012;24.872;2024-02-23T01:47:29;14.33;;;12.83;;
8572;SDS011;4324;42.012;24.872;2024-02-23T01:49:57;13.13;;;11.67;;
8572;SDS011;4324;42.012;24.872;2024-02-23T01:52:27;13.03;;;11.63;;
8572;SDS011;4324;42.012;24.872;2024-02-23T01:54:53;13.53;;;11.47;;
8572;SDS011;4324;42.012;24.872;2024-02-23T01:57:22;18.17;;;13.20;;
8572;SDS011;4324;42.012;24.872;2024-02-23T01:59:50;14.40;;;12.07;;
8572;SDS011;4324;42.012;24.872;2024-02-23T02:02:18;15.80;;;13.10;;
8572;SDS011;4324;42.012;24.872;2024-02-23T02:04:45;16.60;;;12.53;;
8572;SDS011;4324;42.012;24.872;2024-02-23T02:07:12;14.83;;;12.43;;
8572;SDS011;4324;42.012;24.872;2024-02-23T02:09:40;15.80;;;12.97;;
8572;SDS011;4324;42.012;24.872;2024-02-23T02:12:07;14.87;;;12.37;;
8572;SDS011;4324;42.012;24.872;2024-02-23T02:14:34;11.77;;;10.00;;
8572;SDS011;4324;42.012;24.872;2024-02-23T02:17:02;12.00;;;10.10;;
8572;SDS011;4324;42.012;24.872;2024-02-23T02:19:29;12.37;;;10.00;;
8572;SDS011;4324;42.012;24.872;2024-02-23T02:21:56;14.30;;;12.17;;
8572;SDS011;4324;42.012;24.872;2024-02-23T02:24:23;12.43;;;10.60;;
8572;SDS011;4324;42.012;24.872;2024-02-23T02:26:51;11.33;;;9.90;;
8572;SDS011;4324;42.012;24.872;2024-02-23T02:29:18;11.60;;;9.83;;
8572;SDS011;4324;42.012;24.872;2024-02-23T02:31:45;10.17;;;9.13;;
8572;SDS011;4324;42.012;24.872;2024-02-23T02:34:12;12.17;;;9.80;;
8572;SDS011;4324;42.012;24.872;2024-02-23T02:36:40;11.30;;;9.50;;
8572;SDS011;4324;42.012;24.872;2024-02-23T02:39:06;12.90;;;10.10;;
8572;SDS011;4324;42.012;24.872;2024-02-23T02:41:33;13.70;;;10.77;;
8572;SDS011;4324;42.012;24.872;2024-02-23T02:44:02;13.63;;;11.13;;
8572;SDS011;4324;42.012;24.872;2024-02-23T02:46:29;12.63;;;10.50;;
8572;SDS011;4324;42.012;24.872;2024-02-23T02:48:56;15.73;;;10.97;;
8572;SDS011;4324;42.012;24.872;2024-02-23T02:51:23;13.17;;;11.53;;
8572;SDS011;4324;42.012;24.872;2024-02-23T02:53:50;16.90;;;12.20;;
8572;SDS011;4324;42.012;24.872;2024-02-23T02:56:17;14.50;;;11.33;;
8572;SDS011;4324;42.012;24.872;2024-02-23T02:58:44;15.13;;;12.40;;
8572;SDS011;4324;42.012;24.872;2024-02-23T03:01:12;13.87;;;11.97;;
8572;SDS011;4324;42.012;24.872;2024-02-23T03:03:39;16.97;;;11.67;;
8572;SDS011;4324;42.012;24.872;2024-02-23T03:06:06;14.83;;;11.83;;
8572;SDS011;4324;42.012;24.872;2024-02-23T03:08:33;13.43;;;11.27;;
8572;SDS011;4324;42.012;24.872;2024-02-23T03:10:59;12.83;;;10.97;;
8572;SDS011;4324;42.012;24.872;2024-02-23T03:13:26;15.10;;;12.20;;
8572;SDS011;4324;42.012;24.872;2024-02-23T03:15:53;13.10;;;10.50;;
8572;SDS011;4324;42.012;24.872;2024-02-23T03:18:22;13.47;;;10.17;;
8572;SDS011;4324;42.012;24.872;2024-02-23T03:20:48;11.60;;;9.70;;
8572;SDS011;4324;42.012;24.872;2024-02-23T03:23:15;11.23;;;9.30;;
8572;SDS011;4324;42.012;24.872;2024-02-23T03:25:42;11.03;;;9.20;;
8572;SDS011;4324;42.012;24.872;2024-02-23T03:28:09;14.23;;;10.73;;
8572;SDS011;4324;42.012;24.872;2024-02-23T03:30:36;13.50;;;11.77;;
8572;SDS011;4324;42.012;24.872;2024-02-23T03:33:03;15.73;;;13.97;;
8572;SDS011;4324;42.012;24.872;2024-02-23T03:35:31;19.90;;;14.33;;
8572;SDS011;4324;42.012;24.872;2024-02-23T03:37:58;18.90;;;14.90;;
8572;SDS011;4324;42.012;24.872;2024-02-23T03:40:25;15.93;;;14.17;;
8572;SDS011;4324;42.012;24.872;2024-02-23T03:42:52;19.33;;;13.93;;
8572;SDS011;4324;42.012;24.872;2024-02-23T03:45:19;19.60;;;13.43;;
8572;SDS011;4324;42.012;24.872;2024-02-23T03:47:46;18.83;;;16.50;;
8572;SDS011;4324;42.012;24.872;2024-02-23T03:50:13;14.47;;;12.60;;
8572;SDS011;4324;42.012;24.872;2024-02-23T03:52:41;17.10;;;12.77;;
8572;SDS011;4324;42.012;24.872;2024-02-23T03:55:08;16.40;;;13.77;;
8572;SDS011;4324;42.012;24.872;2024-02-23T03:57:36;17.43;;;14.43;;
8572;SDS011;4324;42.012;24.872;2024-02-23T04:00:03;19.93;;;15.47;;
8572;SDS011;4324;42.012;24.872;2024-02-23T04:02:33;19.53;;;14.93;;
8572;SDS011;4324;42.012;24.872;2024-02-23T04:05:00;19.13;;;15.33;;
8572;SDS011;4324;42.012;24.872;2024-02-23T04:07:27;21.70;;;13.87;;
8572;SDS011;4324;42.012;24.872;2024-02-23T04:09:55;16.90;;;13.63;;
8572;SDS011;4324;42.012;24.872;2024-02-23T04:12:22;20.60;;;13.57;;
8572;SDS011;4324;42.012;24.872;2024-02-23T04:14:49;18.83;;;13.23;;
8572;SDS011;4324;42.012;24.872;2024-02-23T04:17:16;23.77;;;15.60;;
8572;SDS011;4324;42.012;24.872;2024-02-23T04:19:42;22.63;;;14.67;;
8572;SDS011;4324;42.012;24.872;2024-02-23T04:22:09;19.87;;;15.30;;
8572;SDS011;4324;42.012;24.872;2024-02-23T04:24:37;21.50;;;14.90;;
8572;SDS011;4324;42.012;24.872;2024-02-23T04:27:06;18.07;;;13.97;;
8572;SDS011;4324;42.012;24.872;2024-02-23T04:29:34;21.17;;;14.57;;
8572;SDS011;4324;42.012;24.872;2024-02-23T04:32:01;20.63;;;12.73;;
8572;SDS011;4324;42.012;24.872;2024-02-23T04:34:29;19.30;;;14.47;;
8572;SDS011;4324;42.012;24.872;2024-02-23T04:36:55;22.00;;;15.00;;
8572;SDS011;4324;42.012;24.872;2024-02-23T04:39:22;19.87;;;14.83;;
8572;SDS011;4324;42.012;24.872;2024-02-23T04:41:49;21.03;;;15.13;;
8572;SDS011;4324;42.012;24.872;2024-02-23T04:44:17;21.30;;;15.03;;
8572;SDS011;4324;42.012;24.872;2024-02-23T04:46:44;23.03;;;14.97;;
8572;SDS011;4324;42.012;24.872;2024-02-23T04:49:11;25.20;;;16.00;;
8572;SDS011;4324;42.012;24.872;2024-02-23T04:51:38;23.90;;;15.37;;
8572;SDS011;4324;42.012;24.872;2024-02-23T04:54:05;18.67;;;15.30;;
8572;SDS011;4324;42.012;24.872;2024-02-23T04:56:32;21.90;;;16.87;;
8572;SDS011;4324;42.012;24.872;2024-02-23T04:58:59;22.00;;;16.60;;
8572;SDS011;4324;42.012;24.872;2024-02-23T05:01:28;28.13;;;18.40;;
8572;SDS011;4324;42.012;24.872;2024-02-23T05:03:54;23.10;;;15.93;;
8572;SDS011;4324;42.012;24.872;2024-02-23T05:06:21;22.17;;;16.00;;
8572;SDS011;4324;42.012;24.872;2024-02-23T05:08:48;28.07;;;17.27;;
8572;SDS011;4324;42.012;24.872;2024-02-23T05:11:15;19.90;;;15.27;;
8572;SDS011;4324;42.012;24.872;2024-02-23T05:13:42;22.63;;;17.17;;
8572;SDS011;4324;42.012;24.872;2024-02-23T05:16:09;26.57;;;20.03;;
8572;SDS011;4324;42.012;24.872;2024-02-23T05:18:39;46.57;;;30.87;;
8572;SDS011;4324;42.012;24.872;2024-02-23T05:21:06;38.13;;;27.40;;
8572;SDS011;4324;42.012;24.872;2024-02-23T05:23:34;32.27;;;22.70;;
8572;SDS011;4324;42.012;24.872;2024-02-23T05:26:02;27.43;;;18.60;;
8572;SDS011;4324;42.012;24.872;2024-02-23T05:28:29;24.17;;;17.93;;
8572;SDS011;4324;42.012;24.872;2024-02-23T05:30:55;27.30;;;22.53;;
8572;SDS011;4324;42.012;24.872;2024-02-23T05:33:23;30.50;;;23.33;;
8572;SDS011;4324;42.012;24.872;2024-02-23T05:35:51;25.80;;;21.67;;
8572;SDS011;4324;42.012;24.872;2024-02-23T05:38:23;24.57;;;19.07;;
8572;SDS011;4324;42.012;24.872;2024-02-23T05:40:53;29.07;;;17.17;;
8572;SDS011;4324;42.012;24.872;2024-02-23T05:43:20;31.83;;;19.03;;
8572;SDS011;4324;42.012;24.872;2024-02-23T05:45:47;29.47;;;19.13;;
8572;SDS011;4324;42.012;24.872;2024-02-23T05:48:14;22.60;;;17.73;;
8572;SDS011;4324;42.012;24.872;2024-02-23T05:50:41;33.73;;;21.63;;
8572;SDS011;4324;42.012;24.872;2024-02-23T05:53:09;29.50;;;16.93;;
8572;SDS011;4324;42.012;24.872;2024-02-23T05:55:36;25.33;;;17.53;;
8572;SDS011;4324;42.012;24.872;2024-02-23T05:58:03;22.80;;;17.03;;
8572;SDS011;4324;42.012;24.872;2024-02-23T06:00:30;22.60;;;16.00;;
8572;SDS011;4324;42.012;24.872;2024-02-23T06:02:57;24.20;;;19.13;;
8572;SDS011;4324;42.012;24.872;2024-02-23T06:05:24;25.37;;;19.67;;
8572;SDS011;4324;42.012;24.872;2024-02-23T06:07:51;24.17;;;19.27;;
8572;SDS011;4324;42.012;24.872;2024-02-23T06:10:19;23.20;;;20.70;;
8572;SDS011;4324;42.012;24.872;2024-02-23T06:12:46;25.97;;;20.43;;
8572;SDS011;4324;42.012;24.872;2024-02-23T06:15:13;28.63;;;22.10;;
8572;SDS011;4324;42.012;24.872;2024-02-23T06:17:40;36.67;;;28.37;;
8572;SDS011;4324;42.012;24.872;2024-02-23T06:20:07;42.67;;;30.77;;
8572;SDS011;4324;42.012;24.872;2024-02-23T06:22:35;41.23;;;30.10;;
8572;SDS011;4324;42.012;24.872;2024-02-23T06:25:02;38.90;;;25.10;;
8572;SDS011;4324;42.012;24.872;2024-02-23T06:27:31;38.17;;;25.93;;
8572;SDS011;4324;42.012;24.872;2024-02-23T06:29:58;37.60;;;26.07;;
8572;SDS011;4324;42.012;24.872;2024-02-23T06:32:25;35.47;;;24.70;;
8572;SDS011;4324;42.012;24.872;2024-02-23T06:34:51;30.37;;;23.37;;
8572;SDS011;4324;42.012;24.872;2024-02-23T06:37:19;30.77;;;23.30;;
8572;SDS011;4324;42.012;24.872;2024-02-23T06:39:46;37.30;;;23.37;;
8572;SDS011;4324;42.012;24.872;2024-02-23T06:42:20;25.47;;;21.00;;
8572;SDS011;4324;42.012;24.872;2024-02-23T06:44:48;29.17;;;19.03;;
8572;SDS011;4324;42.012;24.872;2024-02-23T06:47:15;24.70;;;19.37;;
8572;SDS011;4324;42.012;24.872;2024-02-23T06:49:42;23.67;;;19.33;;
8572;SDS011;4324;42.012;24.872;2024-02-23T06:52:09;25.93;;;18.03;;
8572;SDS011;4324;42.012;24.872;2024-02-23T06:54:36;19.07;;;16.83;;
8572;SDS011;4324;42.012;24.872;2024-02-23T06:57:03;24.27;;;18.77;;
8572;SDS011;4324;42.012;24.872;2024-02-23T06:59:30;26.40;;;19.23;;
8572;SDS011;4324;42.012;24.872;2024-02-23T07:01:59;24.57;;;19.27;;
8572;SDS011;4324;42.012;24.872;2024-02-23T07:04:26;21.93;;;18.67;;
8572;SDS011;4324;42.012;24.872;2024-02-23T07:06:54;24.90;;;19.47;;
8572;SDS011;4324;42.012;24.872;2024-02-23T07:09:21;22.63;;;18.93;;
8572;SDS011;4324;42.012;24.872;2024-02-23T07:11:48;22.60;;;19.23;;
8572;SDS011;4324;42.012;24.872;2024-02-23T07:14:15;22.70;;;18.23;;
8572;SDS011;4324;42.012;24.872;2024-02-23T07:16:43;27.20;;;19.27;;
8572;SDS011;4324;42.012;24.872;2024-02-23T07:19:11;26.10;;;20.03;;
8572;SDS011;4324;42.012;24.872;2024-02-23T07:21:38;26.50;;;20.40;;
8572;SDS011;4324;42.012;24.872;2024-02-23T07:24:06;22.17;;;18.43;;
8572;SDS011;4324;42.012;24.872;2024-02-23T07:26:33;26.77;;;19.67;;
8572;SDS011;4324;42.012;24.872;2024-02-23T07:29:00;29.43;;;20.90;;
8572;SDS011;4324;42.012;24.872;2024-02-23T07:31:27;28.67;;;20.73;;
8572;SDS011;4324;42.012;24.872;2024-02-23T07:33:53;24.00;;;20.30;;
8572;SDS011;4324;42.012;24.872;2024-02-23T07:36:22;28.13;;;22.33;;
8572;SDS011;4324;42.012;24.872;2024-02-23T07:38:49;37.57;;;29.33;;
8572;SDS011;4324;42.012;24.872;2024-02-23T07:41:15;34.73;;;27.37;;
8572;SDS011;4324;42.012;24.872;2024-02-23T07:43:43;32.10;;;26.13;;
8572;SDS011;4324;42.012;24.872;2024-02-23T07:46:10;32.43;;;24.20;;
8572;SDS011;4324;42.012;24.872;2024-02-23T07:48:37;34.13;;;24.67;;
8572;SDS011;4324;42.012;24.872;2024-02-23T07:51:04;27.83;;;22.83;;
8572;SDS011;4324;42.012;24.872;2024-02-23T07:53:33;34.57;;;25.03;;
8572;SDS011;4324;42.012;24.872;2024-02-23T07:56:00;34.07;;;24.23;;
8572;SDS011;4324;42.012;24.872;2024-02-23T07:58:27;36.60;;;27.03;;
8572;SDS011;4324;42.012;24.872;2024-02-23T08:00:54;32.60;;;27.27;;
8572;SDS011;4324;42.012;24.872;2024-02-23T08:03:21;38.47;;;29.67;;
8572;SDS011;4324;42.012;24.872;2024-02-23T08:05:48;35.13;;;27.77;;
8572;SDS011;4324;42.012;24.872;2024-02-23T08:08:15;70.70;;;47.23;;
8572;SDS011;4324;42.012;24.872;2024-02-23T08:10:44;52.27;;;38.53;;
8572;SDS011;4324;42.012;24.872;2024-02-23T08:13:11;48.63;;;35.20;;
8572;SDS011;4324;42.012;24.872;2024-02-23T08:15:38;37.10;;;30.43;;
8572;SDS011;4324;42.012;24.872;2024-02-23T08:18:05;35.87;;;25.00;;
8572;SDS011;4324;42.012;24.872;2024-02-23T08:20:32;27.30;;;22.70;;
8572;SDS011;4324;42.012;24.872;2024-02-23T08:22:59;27.10;;;22.43;;
8572;SDS011;4324;42.012;24.872;2024-02-23T08:25:26;42.67;;;31.43;;
8572;SDS011;4324;42.012;24.872;2024-02-23T08:27:55;39.60;;;29.03;;
8572;SDS011;4324;42.012;24.872;2024-02-23T08:30:23;34.37;;;28.50;;
8572;SDS011;4324;42.012;24.872;2024-02-23T08:32:50;26.33;;;22.17;;
8572;SDS011;4324;42.012;24.872;2024-02-23T08:35:17;34.73;;;27.90;;
8572;SDS011;4324;42.012;24.872;2024-02-23T08:37:44;37.57;;;29.33;;
8572;SDS011;4324;42.012;24.872;2024-02-23T08:40:11;31.33;;;26.40;;
8572;SDS011;4324;42.012;24.872;2024-02-23T08:42:38;24.83;;;22.20;;
8572;SDS011;4324;42.012;24.872;2024-02-23T08:45:07;32.13;;;25.27;;
8572;SDS011;4324;42.012;24.872;2024-02-23T08:47:37;24.80;;;21.07;;
8572;SDS011;4324;42.012;24.872;2024-02-23T08:50:05;35.77;;;27.87;;
8572;SDS011;4324;42.012;24.872;2024-02-23T08:52:32;34.07;;;30.37;;
8572;SDS011;4324;42.012;24.872;2024-02-23T08:54:59;22.50;;;18.43;;
8572;SDS011;4324;42.012;24.872;2024-02-23T08:57:26;23.60;;;19.30;;
8572;SDS011;4324;42.012;24.872;2024-02-23T08:59:53;19.63;;;17.53;;
8572;SDS011;4324;42.012;24.872;2024-02-23T09:02:24;31.67;;;23.70;;
8572;SDS011;4324;42.012;24.872;2024-02-23T09:04:50;21.00;;;18.60;;
8572;SDS011;4324;42.012;24.872;2024-02-23T09:07:18;22.77;;;18.33;;
8572;SDS011;4324;42.012;24.872;2024-02-23T09:09:46;21.10;;;18.37;;
8572;SDS011;4324;42.012;24.872;2024-02-23T09:12:14;21.73;;;19.37;;
8572;SDS011;4324;42.012;24.872;2024-02-23T09:14:41;21.90;;;19.37;;
8572;SDS011;4324;42.012;24.872;2024-02-23T09:17:08;21.87;;;18.47;;
8572;SDS011;4324;42.012;24.872;2024-02-23T09:19:37;22.53;;;19.33;;
8572;SDS011;4324;42.012;24.872;2024-02-23T09:22:04;22.63;;;20.33;;
8572;SDS011;4324;42.012;24.872;2024-02-23T09:24:31;24.43;;;19.80;;
8572;SDS011;4324;42.012;24.872;2024-02-23T09:26:58;22.57;;;19.10;;
8572;SDS011;4324;42.012;24.872;2024-02-23T09:29:25;20.70;;;18.50;;
8572;SDS011;4324;42.012;24.872;2024-02-23T09:31:52;20.97;;;18.43;;
8572;SDS011;4324;42.012;24.872;2024-02-23T09:34:19;19.63;;;17.53;;
8572;SDS011;4324;42.012;24.872;2024-02-23T09:36:47;35.93;;;26.87;;
8572;SDS011;4324;42.012;24.872;2024-02-23T09:39:14;20.20;;;17.67;;
8572;SDS011;4324;42.012;24.872;2024-02-23T09:41:41;21.53;;;19.33;;
8572;SDS011;4324;42.012;24.872;2024-02-23T09:44:09;13.93;;;12.53;;
8572;SDS011;4324;42.012;24.872;2024-02-23T09:46:36;17.97;;;16.13;;
8572;SDS011;4324;42.012;24.872;2024-02-23T09:49:04;18.67;;;15.47;;
8572;SDS011;4324;42.012;24.872;2024-02-23T09:51:33;18.17;;;16.37;;
8572;SDS011;4324;42.012;24.872;2024-02-23T09:54:02;19.87;;;17.67;;
8572;SDS011;4324;42.012;24.872;2024-02-23T09:56:29;19.23;;;17.30;;
8572;SDS011;4324;42.012;24.872;2024-02-23T09:58:59;17.97;;;16.17;;
8572;SDS011;4324;42.012;24.872;2024-02-23T10:01:28;17.23;;;15.43;;
8572;SDS011;4324;42.012;24.872;2024-02-23T10:03:58;18.63;;;16.50;;
8572;SDS011;4324;42.012;24.872;2024-02-23T10:06:26;20.83;;;18.20;;
8572;SDS011;4324;42.012;24.872;2024-02-23T10:08:54;18.67;;;15.90;;
8572;SDS011;4324;42.012;24.872;2024-02-23T10:11:22;19.73;;;16.80;;
8572;SDS011;4324;42.012;24.872;2024-02-23T10:13:50;18.07;;;16.17;;
8572;SDS011;4324;42.012;24.872;2024-02-23T10:16:18;19.70;;;17.43;;
8572;SDS011;4324;42.012;24.872;2024-02-23T10:18:46;17.67;;;15.57;;
8572;SDS011;4324;42.012;24.872;2024-02-23T10:21:13;16.70;;;15.00;;
8572;SDS011;4324;42.012;24.872;2024-02-23T10:23:41;20.27;;;18.27;;
8572;SDS011;4324;42.012;24.872;2024-02-23T10:26:08;21.40;;;18.10;;
8572;SDS011;4324;42.012;24.872;2024-02-23T10:28:36;19.00;;;16.20;;
8572;SDS011;4324;42.012;24.872;2024-02-23T10:31:04;17.70;;;15.87;;
8572;SDS011;4324;42.012;24.872;2024-02-23T10:33:30;18.57;;;16.70;;
8572;SDS011;4324;42.012;24.872;2024-02-23T10:35:57;16.57;;;14.90;;
8572;SDS011;4324;42.012;24.872;2024-02-23T10:38:27;16.80;;;15.20;;
8572;SDS011;4324;42.012;24.872;2024-02-23T10:40:58;22.47;;;20.17;;
8572;SDS011;4324;42.012;24.872;2024-02-23T10:43:29;16.67;;;14.53;;
8572;SDS011;4324;42.012;24.872;2024-02-23T10:46:00;18.03;;;15.00;;
8572;SDS011;4324;42.012;24.872;2024-02-23T10:48:33;15.30;;;13.70;;
8572;SDS011;4324;42.012;24.872;2024-02-23T10:51:01;15.97;;;14.47;;
8572;SDS011;4324;42.012;24.872;2024-02-23T10:53:31;14.43;;;12.93;;
8572;SDS011;4324;42.012;24.872;2024-02-23T10:55:58;15.30;;;13.70;;
8572;SDS011;4324;42.012;24.872;2024-02-23T10:58:26;14.17;;;12.77;;
8572;SDS011;4324;42.012;24.872;2024-02-23T11:00:53;12.57;;;11.27;;
8572;SDS011;4324;42.012;24.872;2024-02-23T11:03:29;14.63;;;12.63;;
8572;SDS011;4324;42.012;24.872;2024-02-23T11:05:59;13.50;;;12.20;;
8572;SDS011;4324;42.012;24.872;2024-02-23T11:08:27;12.70;;;11.43;;
8572;SDS011;4324;42.012;24.872;2024-02-23T11:10:54;13.47;;;12.07;;
8572;SDS011;4324;42.012;24.872;2024-02-23T11:13:29;13.90;;;12.50;;
8572;SDS011;4324;42.012;24.872;2024-02-23T11:16:00;13.33;;;12.03;;
8572;SDS011;4324;42.012;24.872;2024-02-23T11:18:30;14.03;;;12.60;;
8572;SDS011;4324;42.012;24.872;2024-02-23T11:20:59;13.67;;;12.13;;
8572;SDS011;4324;42.012;24.872;2024-02-23T11:23:27;14.30;;;12.90;;
8572;SDS011;4324;42.012;24.872;2024-02-23T11:26:06;14.63;;;13.10;;
8572;SDS011;4324;42.012;24.872;2024-02-23T11:28:41;15.63;;;13.63;;
8572;SDS011;4324;42.012;24.872;2024-02-23T11:31:12;13.73;;;12.43;;
8572;SDS011;4324;42.012;24.872;2024-02-23T11:33:50;15.57;;;13.97;;
8572;SDS011;4324;42.012;24.872;2024-02-23T11:36:22;13.30;;;12.03;;
8572;SDS011;4324;42.012;24.872;2024-02-23T11:38:52;16.30;;;14.60;;
8572;SDS011;4324;42.012;24.872;2024-02-23T11:41:19;15.67;;;14.07;;
8572;SDS011;4324;42.012;24.872;2024-02-23T11:43:47;14.47;;;13.03;;
8572;SDS011;4324;42.012;24.872;2024-02-23T11:46:14;14.67;;;13.07;;
8572;SDS011;4324;42.012;24.872;2024-02-23T11:48:41;13.37;;;11.93;;
8572;SDS011;4324;42.012;24.872;2024-02-23T11:51:10;13.20;;;11.90;;
8572;SDS011;4324;42.012;24.872;2024-02-23T11:53:37;13.80;;;12.40;;
8572;SDS011;4324;42.012;24.872;2024-02-23T11:56:04;15.50;;;14.00;;
8572;SDS011;4324;42.012;24.872;2024-02-23T11:58:31;14.33;;;12.83;;
8572;SDS011;4324;42.012;24.872;2024-02-23T12:00:58;14.00;;;12.13;;
8572;SDS011;4324;42.012;24.872;2024-02-23T12:03:27;13.63;;;12.27;;
8572;SDS011;4324;42.012;24.872;2024-02-23T12:05:55;14.03;;;12.63;;
8572;SDS011;4324;42.012;24.872;2024-02-23T12:08:25;14.47;;;13.07;;
8572;SDS011;4324;42.012;24.872;2024-02-23T12:10:53;15.60;;;13.40;;
8572;SDS011;4324;42.012;24.872;2024-02-23T12:13:20;14.83;;;13.33;;
8572;SDS011;4324;42.012;24.872;2024-02-23T12:15:48;14.20;;;12.90;;
8572;SDS011;4324;42.012;24.872;2024-02-23T12:18:18;13.67;;;12.37;;
8572;SDS011;4324;42.012;24.872;2024-02-23T12:20:48;13.87;;;12.27;;
8572;SDS011;4324;42.012;24.872;2024-02-23T12:23:15;12.63;;;11.33;;
8572;SDS011;4324;42.012;24.872;2024-02-23T12:25:53;13.73;;;12.43;;
8572;SDS011;4324;42.012;24.872;2024-02-23T12:28:20;13.57;;;12.27;;
8572;SDS011;4324;42.012;24.872;2024-02-23T12:30:57;13.00;;;11.73;;
8572;SDS011;4324;42.012;24.872;2024-02-23T12:33:26;13.10;;;11.80;;
8572;SDS011;4324;42.012;24.872;2024-02-23T12:35:54;14.57;;;13.17;;
8572;SDS011;4324;42.012;24.872;2024-02-23T12:38:21;13.87;;;12.57;;
8572;SDS011;4324;42.012;24.872;2024-02-23T12:40:48;13.37;;;12.00;;
8572;SDS011;4324;42.012;24.872;2024-02-23T12:43:16;12.87;;;11.67;;
8572;SDS011;4324;42.012;24.872;2024-02-23T12:45:46;13.17;;;11.97;;
8572;SDS011;4324;42.012;24.872;2024-02-23T12:48:14;14.63;;;12.97;;
8572;SDS011;4324;42.012;24.872;2024-02-23T12:50:41;15.77;;;14.00;;
8572;SDS011;4324;42.012;24.872;2024-02-23T12:53:09;12.20;;;11.07;;
8572;SDS011;4324;42.012;24.872;2024-02-23T12:55:56;12.80;;;11.60;;
8572;SDS011;4324;42.012;24.872;2024-02-23T12:58:24;13.90;;;12.50;;
8572;SDS011;4324;42.012;24.872;2024-02-23T13:00:51;13.27;;;11.87;;
8572;SDS011;4324;42.012;24.872;2024-02-23T13:03:18;13.10;;;11.90;;
8572;SDS011;4324;42.012;24.872;2024-02-23T13:05:45;14.77;;;13.27;;
8572;SDS011;4324;42.012;24.872;2024-02-23T13:08:12;12.37;;;11.17;;
8572;SDS011;4324;42.012;24.872;2024-02-23T13:10:39;11.70;;;10.30;;
8572;SDS011;4324;42.012;24.872;2024-02-23T13:13:06;10.97;;;9.97;;
8572;SDS011;4324;42.012;24.872;2024-02-23T13:15:34;12.23;;;11.13;;
8572;SDS011;4324;42.012;24.872;2024-02-23T13:18:02;14.23;;;12.57;;
8572;SDS011;4324;42.012;24.872;2024-02-23T13:20:29;10.73;;;9.73;;
8572;SDS011;4324;42.012;24.872;2024-02-23T13:22:56;11.00;;;9.97;;
8572;SDS011;4324;42.012;24.872;2024-02-23T13:25:23;11.40;;;10.30;;
8572;SDS011;4324;42.012;24.872;2024-02-23T13:27:50;11.20;;;10.03;;
8572;SDS011;4324;42.012;24.872;2024-02-23T13:30:18;10.93;;;9.80;;
8572;SDS011;4324;42.012;24.872;2024-02-23T13:32:46;15.63;;;11.30;;
8572;SDS011;4324;42.012;24.872;2024-02-23T13:35:13;10.93;;;9.83;;
8572;SDS011;4324;42.012;24.872;2024-02-23T13:37:42;11.97;;;10.87;;
8572;SDS011;4324;42.012;24.872;2024-02-23T13:40:09;11.23;;;10.13;;
8572;SDS011;4324;42.012;24.872;2024-02-23T13:42:36;12.83;;;11.50;;
8572;SDS011;4324;42.012;24.872;2024-02-23T13:45:05;12.20;;;10.83;;
8572;SDS011;4324;42.012;24.872;2024-02-23T13:47:32;12.73;;;11.40;;
8572;SDS011;4324;42.012;24.872;2024-02-23T13:50:01;12.63;;;11.43;;
8572;SDS011;4324;42.012;24.872;2024-02-23T13:52:28;13.10;;;11.40;;
8572;SDS011;4324;42.012;24.872;2024-02-23T13:54:56;12.20;;;11.13;;
8572;SDS011;4324;42.012;24.872;2024-02-23T13:57:23;12.10;;;10.97;;
8572;SDS011;4324;42.012;24.872;2024-02-23T13:59:50;12.43;;;11.23;;
8572;SDS011;4324;42.012;24.872;2024-02-23T14:02:23;18.00;;;16.30;;
8572;SDS011;4324;42.012;24.872;2024-02-23T14:04:51;13.30;;;12.00;;
8572;SDS011;4324;42.012;24.872;2024-02-23T14:07:20;11.83;;;10.63;;
8572;SDS011;4324;42.012;24.872;2024-02-23T14:09:47;12.03;;;10.70;;
8572;SDS011;4324;42.012;24.872;2024-02-23T14:12:14;11.93;;;10.83;;
8572;SDS011;4324;42.012;24.872;2024-02-23T14:14:42;11.73;;;10.63;;
8572;SDS011;4324;42.012;24.872;2024-02-23T14:17:09;14.13;;;12.70;;
8572;SDS011;4324;42.012;24.872;2024-02-23T14:19:36;12.73;;;11.43;;
8572;SDS011;4324;42.012;24.872;2024-02-23T14:22:04;22.97;;;20.67;;
8572;SDS011;4324;42.012;24.872;2024-02-23T14:24:33;12.03;;;10.83;;
8572;SDS011;4324;42.012;24.872;2024-02-23T14:27:00;11.73;;;10.57;;
8572;SDS011;4324;42.012;24.872;2024-02-23T14:29:27;11.67;;;10.67;;
8572;SDS011;4324;42.012;24.872;2024-02-23T14:31:54;12.93;;;11.63;;
8572;SDS011;4324;42.012;24.872;2024-02-23T14:34:21;12.03;;;10.93;;
8572;SDS011;4324;42.012;24.872;2024-02-23T14:36:49;12.13;;;10.93;;
8572;SDS011;4324;42.012;24.872;2024-02-23T14:39:16;12.57;;;11.37;;